• Join FlightAware (Why Join?)
  • Login
  • US Flag 
01:11PM EST


 

Airport Tracker/Info


-or-


 

Live Flight TrackerFlight Track Log ✈ DAL6246 ✈ 03-Jul-2014 ✈ KDTW - KRDU

Flight Track Log - Related Links

Times and Time Zones

All times are in EDT time to prevent confusion due to time zone crossing. See the DAL6246 flight status page for this flight to view local times or setup timezone preferences in your user account.

Time Position Orientation Groundspeed Altitude Reporting Facility
EDT Latitude Longitude Course Direction KTS MPH feet Rate Location/Type
11:01PM 42.2294 -83.3367 49° Northeast 149 171 1,100  Level Cleveland Center
11:02PM 42.2531 -83.3006 49° Northeast 171 197 2,800 1,800 Climbing Cleveland Center
11:02PM 42.2619 -83.2869 49° Northeast 170 196 3,300 1,860 Climbing Cleveland Center
11:03PM 42.2561 -83.2358 99° East 238 274 4,700 1,920 Climbing Cleveland Center
11:03PM 42.2411 -83.2264 155° Southeast 221 254 5,300 2,340 Climbing Cleveland Center
11:04PM 42.1853 -83.2289 182° South 273 314 7,100 2,880 Climbing Cleveland Center
11:04PM 42.1547 -83.2339 187° South 271 312 8,300 2,820 Climbing Cleveland Center
11:05PM 42.1086 -83.2464 191° South 287 330 10,000 2,700 Climbing Cleveland Center
11:06PM 42.0761 -83.2519 187° South 281 323 11,100 1,620 Climbing Cleveland Center
11:07PM 41.9861 -83.2722 190° South 319 367 12,400 1,500 Climbing Cleveland Center
11:08PM 41.8975 -83.2922 190° South 358 412 14,200 1,980 Climbing Cleveland Center
11:09PM 41.7783 -83.3467 199° South 375 432 16,500 1,860 Climbing Cleveland Center
11:10PM 41.6767 -83.3953 200° South 384 442 18,100 1,620 Climbing Cleveland Center
11:11PM 41.5725 -83.4453 200° South 392 451 19,900 1,740 Climbing Cleveland Center
11:12PM 41.4644 -83.4778 193° South 401 461 21,700 1,800 Climbing Cleveland Center
11:13PM 41.3564 -83.4125 156° South 424 488 23,600 1,560 Climbing Cleveland Center
11:14PM 41.2511 -83.3406 153° Southeast 425 489 24,900 1,080 Climbing Cleveland Center
11:15PM 41.1414 -83.2664 153° Southeast 438 504 25,900 1,020 Climbing Cleveland Center
11:16PM 41.0083 -83.1769 153° Southeast 451 519 27,100 1,080 Climbing Cleveland Center
11:17PM 40.8964 -83.1033 154° Southeast 457 526 28,200 1,080 Climbing Cleveland Center
11:18PM 40.7792 -83.0239 153° Southeast 459 528 29,400 1,020 Climbing Cleveland Center
11:19PM 40.6656 -82.9472 153° Southeast 459 528 30,400 840 Climbing Cleveland Center
11:20PM 40.5917 -82.8986 153° Southeast 460 529 30,900 900 Climbing Indianapolis Center
11:21PM 40.4597 -82.7978 150° Southeast 466 536 32,000 1,020 Climbing Indianapolis Center
11:22PM 40.3531 -82.6964 144° Southeast 470 541 33,000 960 Climbing Indianapolis Center
11:23PM 40.2483 -82.5958 144° Southeast 470 541 34,000 960 Climbing Indianapolis Center
11:24PM 40.1447 -82.5017 145° Southeast 467 537 35,000 960 Climbing Indianapolis Center
11:25PM 40.0406 -82.4072 145° Southeast 458 527 36,000 960 Climbing Indianapolis Center
11:26PM 39.9383 -82.3158 146° Southeast 452 520 37,000 480 Climbing Indianapolis Center
11:27PM 39.8375 -82.2242 145° Southeast 446 513 37,000  Level Indianapolis Center
11:28PM 39.7328 -82.1303 145° Southeast 450 518 37,000  Level Indianapolis Center
11:29PM 39.6236 -82.0311 145° Southeast 452 520 37,000  Level Indianapolis Center
11:30PM 39.5183 -81.9378 146° Southeast 455 524 37,000  Level Indianapolis Center
11:31PM 39.4139 -81.8450 146° Southeast 455 524 37,000  Level Indianapolis Center
11:32PM 39.3103 -81.7542 146° Southeast 454 522 37,000  Level Indianapolis Center
11:33PM 39.2058 -81.6619 146° Southeast 454 522 37,000  Level Indianapolis Center
11:34PM 39.1039 -81.5703 145° Southeast 452 520 37,000  Level Indianapolis Center
11:35PM 38.9997 -81.4792 146° Southeast 451 519 37,000  Level Indianapolis Center
11:36PM 38.8958 -81.3872 145° Southeast 450 518 37,000  Level Indianapolis Center
11:37PM 38.7897 -81.2956 146° Southeast 450 518 37,000  Level Indianapolis Center
11:38PM 38.6844 -81.2042 146° Southeast 450 518 37,000  Level Indianapolis Center
11:39PM 38.5806 -81.1169 147° Southeast 447 514 37,000  Level Indianapolis Center
11:40PM 38.4772 -81.0283 146° Southeast 444 511 37,000  Level Indianapolis Center
11:41PM 38.3517 -80.9206 146° Southeast 446 513 37,000 -600 Level Indianapolis Center
11:42PM 38.2475 -80.8322 146° Southeast 446 513 35,800 -1,500 Descending Indianapolis Center
11:43PM 38.1431 -80.7447 147° Southeast 447 514 34,000 -1,860 Descending Indianapolis Center
11:44PM 38.0378 -80.6556 146° Southeast 448 516 32,100 -1,920 Descending Indianapolis Center
11:45PM 37.9786 -80.6106 149° Southeast 446 513 31,100 -1,920 Descending Washington Center
11:46PM 37.8717 -80.5192 146° Southeast 453 521 29,100 -2,040 Descending Washington Center
11:47PM 37.7647 -80.4308 147° Southeast 453 521 27,100 -1,080 Descending Washington Center
11:48PM 37.6619 -80.3428 146° Southeast 458 527 27,000 -60 Descending Washington Center
11:49PM 37.5569 -80.2550 146° Southeast 458 527 27,000 -600 Level Washington Center
11:50PM 37.3903 -80.1114 146° Southeast 460 529 25,600 -960 Descending Indianapolis Center
11:51PM 37.3000 -80.0000 136° Southeast 466 536 24,600 -1,020 Descending Indianapolis Center
11:52PM 37.2211 -79.8750 128° Southeast 465 535 23,600 -840 Descending Indianapolis Center
11:53PM 37.1394 -79.7561 131° Southeast 461 531 23,000 -300 Descending Indianapolis Center
11:55PM 37.0106 -79.6156 139° Southeast 449 517 23,000 -600 Level Washington Center
11:56PM 36.9181 -79.5122 138° Southeast 444 511 21,600 -1,620 Descending Washington Center
11:57PM 36.8275 -79.4117 138° Southeast 444 511 19,800 -5,760 Descending Washington Center
11:58PM 36.7431 -79.3142 137° Southeast 432 497 10,000 -1,920 Descending Washington Center
11:59PM 36.6600 -79.2247 139° Southeast 414 476 16,100 2,340 Climbing Washington Center
12:00AM 36.5792 -79.1381 139° Southeast 402 463 14,700 -1,440 Descending Washington Center
12:01AM 36.4944 -79.0439 138° Southeast 389 448 13,200 -1,560 Descending Washington Center
12:02AM 36.4194 -78.9656 140° Southeast 375 432 11,800 -1,440 Descending Washington Center
12:02AM 36.3433 -78.9236 156° South 319 367 10,600 -1,260 Descending Washington Center
12:03AM 36.2556 -78.9328 185° South 302 348 9,400 -1,200 Descending Washington Center
12:04AM 36.1781 -78.9425 186° South 296 341 8,200 -1,200 Descending Washington Center
12:05AM 36.0942 -78.9542 186° South 296 341 7,000 -1,260 Descending Washington Center
12:06AM 36.0022 -78.9658 186° South 306 352 5,700 -1,080 Descending Washington Center
12:08AM 35.9183 -78.9775 186° South 304 350 4,800 -1,080 Descending Washington Center
12:09AM 35.8600 -78.9700 174° South 240 276 3,600 -1,320 Descending Washington Center
12:09AM 35.8136 -78.9192 138° Southeast 214 246 2,300 -840 Descending Washington Center
12:10AM 35.8192 -78.8708 82° East 121 139 2,000 -540 Descending Washington Center
12:12AM 35.8428 -78.8411 46° Northeast 119 137 1,300 -780 Descending Washington Center
12:13AM 35.8708 -78.8064 45° Northeast 140 161 500 -840 Descending Washington Center
12:15AM 35.8667 -78.7833 90° East  Level FlightAware Approximate
12:22AM 35.8776 -78.7875 90° East  Level Estimated
12:23AM 35.8776 -78.7875 90° East  Level Estimated